createdAt,value
2018-06-27T00:00:48.335Z,101506.64
2018-06-27T00:01:51.978Z,101508.58
2018-06-27T00:02:55.409Z,101506.08
2018-06-27T00:03:58.828Z,101505.83
2018-06-27T00:05:02.233Z,101498.13
2018-06-27T00:06:05.750Z,101500.88
2018-06-27T00:07:09.173Z,101500.31
2018-06-27T00:08:13.045Z,101493.42
2018-06-27T00:09:16.418Z,101498.69
2018-06-27T00:10:19.872Z,101493.99
2018-06-27T00:11:23.276Z,101498.37
2018-06-27T00:12:26.685Z,101501.69
2018-06-27T00:13:30.069Z,101490.42
2018-06-27T00:14:33.445Z,101491.80
2018-06-27T00:15:36.909Z,101496.19
2018-06-27T00:16:40.306Z,101492.87
2018-06-27T00:17:43.724Z,101489.86
2018-06-27T00:18:47.183Z,101486.54
2018-06-27T00:19:50.591Z,101491.23
2018-06-27T00:20:54.010Z,101488.48
2018-06-27T00:21:57.408Z,101493.99
2018-06-27T00:23:00.883Z,101497.00
2018-06-27T00:24:04.305Z,101494.80
2018-06-27T00:25:07.693Z,101493.99
2018-06-27T00:26:11.113Z,101493.42
2018-06-27T00:27:14.503Z,101491.80
2018-06-27T00:28:17.929Z,101487.92
2018-06-27T00:29:21.503Z,101489.30
2018-06-27T00:30:24.918Z,101489.05
2018-06-27T00:31:28.331Z,101490.67
2018-06-27T00:32:31.723Z,101490.42
2018-06-27T00:33:35.118Z,101486.28
2018-06-27T00:34:38.508Z,101488.73
2018-06-27T00:35:41.894Z,101483.53
2018-06-27T00:36:45.321Z,101487.66
2018-06-27T00:37:48.737Z,101490.42
2018-06-27T00:38:52.140Z,101486.54
2018-06-27T00:39:55.518Z,101491.23
2018-06-27T00:40:58.950Z,101489.30
2018-06-27T00:42:02.358Z,101491.80
2018-06-27T00:43:06.031Z,101487.66
2018-06-27T00:44:09.456Z,101489.30
2018-06-27T00:45:12.860Z,101489.05
2018-06-27T00:46:16.308Z,101489.05
2018-06-27T00:47:19.690Z,101488.48
2018-06-27T00:48:23.088Z,101479.41
2018-06-27T00:49:26.500Z,101480.78
2018-06-27T00:50:29.932Z,101478.28
2018-06-27T00:51:33.877Z,101482.16
2018-06-27T00:52:37.269Z,101475.27
2018-06-27T00:53:45.956Z,101481.59
2018-06-27T00:54:49.371Z,101482.16
2018-06-27T00:55:52.765Z,101484.91
2018-06-27T00:56:56.195Z,101485.73
2018-06-27T00:57:59.585Z,101482.16
2018-06-27T00:59:03.104Z,101482.16
2018-06-27T01:00:06.518Z,101481.34
2018-06-27T01:01:09.953Z,101485.73
2018-06-27T01:02:13.362Z,101483.53
2018-06-27T01:03:16.778Z,101477.77
2018-06-27T01:04:20.212Z,101478.84
2018-06-27T01:05:23.634Z,101475.02
2018-06-27T01:06:27.033Z,101472.27
2018-06-27T01:07:30.426Z,101480.53
2018-06-27T01:08:33.856Z,101482.72
2018-06-27T01:09:37.250Z,101480.78
2018-06-27T01:10:40.736Z,101480.53
2018-06-27T01:11:44.048Z,101484.66
2018-06-27T01:12:47.461Z,101483.28
2018-06-27T01:13:51.708Z,101480.53
2018-06-27T01:14:55.155Z,101481.34
2018-06-27T01:15:58.569Z,101482.16
2018-06-27T01:17:01.975Z,101482.16
2018-06-27T01:18:05.369Z,101480.53
2018-06-27T01:19:08.776Z,101476.39
2018-06-27T01:20:12.285Z,101476.65
2018-06-27T01:21:15.669Z,101479.96
2018-06-27T01:22:19.091Z,101485.22
2018-06-27T01:23:22.476Z,101484.66
2018-06-27T01:24:25.931Z,101483.28
2018-06-27T01:25:29.353Z,101477.77
2018-06-27T01:26:32.820Z,101481.91
2018-06-27T01:27:36.209Z,101479.96
2018-06-27T01:28:39.614Z,101477.77
2018-06-27T01:29:42.989Z,101477.52
2018-06-27T01:30:46.532Z,101480.53
2018-06-27T01:31:50.178Z,101484.66
2018-06-27T01:32:53.554Z,101486.03
2018-06-27T01:33:56.957Z,101486.03
2018-06-27T01:35:00.372Z,101496.49
2018-06-27T01:36:04.015Z,101487.98
2018-06-27T01:37:07.423Z,101485.78
2018-06-27T01:38:10.830Z,101491.55
2018-06-27T01:39:14.236Z,101487.41
2018-06-27T01:40:17.638Z,101488.53
2018-06-27T01:41:21.064Z,101489.91
2018-06-27T01:42:24.512Z,101494.86
2018-06-27T01:43:27.900Z,101497.62
2018-06-27T01:44:31.274Z,101492.11
2018-06-27T01:45:34.820Z,101502.56
2018-06-27T01:46:38.222Z,101497.36
2018-06-27T01:47:41.605Z,101496.80
2018-06-27T01:48:44.993Z,101492.92
2018-06-27T01:49:48.402Z,101498.18
2018-06-27T01:50:52.011Z,101499.55
2018-06-27T01:51:55.394Z,101501.75
2018-06-27T01:52:58.817Z,101503.69
2018-06-27T01:54:02.239Z,101500.40
2018-06-27T01:55:05.714Z,101506.45
2018-06-27T01:56:10.653Z,101504.25
2018-06-27T01:57:14.048Z,101504.25
2018-06-27T01:58:17.512Z,101506.45
2018-06-27T01:59:20.963Z,101499.30
2018-06-27T02:00:24.359Z,101509.20
2018-06-27T02:01:27.765Z,101502.88
2018-06-27T02:02:31.148Z,101505.34
2018-06-27T02:03:34.600Z,101508.95
2018-06-27T02:04:37.985Z,101505.06
2018-06-27T02:05:41.386Z,101513.61
2018-06-27T02:06:44.772Z,101516.08
2018-06-27T02:07:48.176Z,101515.83
2018-06-27T02:08:51.594Z,101515.27
2018-06-27T02:09:54.988Z,101517.20
2018-06-27T02:10:58.397Z,101511.70
2018-06-27T02:12:01.837Z,101513.08
2018-06-27T02:13:05.242Z,101517.20
2018-06-27T02:14:08.710Z,101509.76
2018-06-27T02:15:12.120Z,101517.20
2018-06-27T02:16:15.520Z,101508.66
2018-06-27T02:17:18.916Z,101512.80
2018-06-27T02:18:22.325Z,101508.66
2018-06-27T02:19:25.782Z,101510.85
2018-06-27T02:20:29.166Z,101511.41
2018-06-27T02:21:32.565Z,101519.96
2018-06-27T02:22:35.953Z,101519.96
2018-06-27T02:23:39.346Z,101513.08
2018-06-27T02:24:42.763Z,101510.60
2018-06-27T02:25:46.171Z,101515.55
2018-06-27T02:26:49.658Z,101508.66
2018-06-27T02:27:53.055Z,101513.36
2018-06-27T02:28:56.438Z,101511.41
2018-06-27T02:29:59.866Z,101509.22
2018-06-27T02:31:03.280Z,101512.80
2018-06-27T02:32:06.666Z,101516.92
2018-06-27T02:33:10.134Z,101507.03
2018-06-27T02:34:13.557Z,101510.03
2018-06-27T02:35:16.993Z,101509.22
2018-06-27T02:36:20.481Z,101513.91
2018-06-27T02:37:23.894Z,101511.72
2018-06-27T02:38:27.779Z,101511.98
2018-06-27T02:39:31.213Z,101517.23
2018-06-27T02:40:34.653Z,101516.67
2018-06-27T02:41:38.851Z,101515.04
2018-06-27T02:42:42.264Z,101517.23
2018-06-27T02:43:45.653Z,101518.61
2018-06-27T02:44:49.081Z,101510.91
2018-06-27T02:45:52.690Z,101515.30
2018-06-27T02:46:56.093Z,101515.86
2018-06-27T02:47:59.511Z,101515.04
2018-06-27T02:49:02.909Z,101515.04
2018-06-27T02:50:06.376Z,101506.52
2018-06-27T02:51:09.841Z,101514.48
2018-06-27T02:52:13.233Z,101508.16
2018-06-27T02:53:16.611Z,101512.28
2018-06-27T02:54:19.996Z,101509.28
2018-06-27T02:55:23.374Z,101510.09
2018-06-27T02:56:26.820Z,101508.72
2018-06-27T02:57:30.219Z,101513.41
2018-06-27T02:58:33.593Z,101509.84
2018-06-27T02:59:37.001Z,101510.41
2018-06-27T03:00:40.408Z,101513.41
2018-06-27T03:01:43.825Z,101509.28
2018-06-27T03:02:47.665Z,101510.66
2018-06-27T03:03:51.056Z,101506.52
2018-06-27T03:04:54.471Z,101509.28
2018-06-27T03:05:58.048Z,101513.66
2018-06-27T03:07:01.457Z,101506.83
2018-06-27T03:08:05.250Z,101509.28
2018-06-27T03:09:10.077Z,101517.54
2018-06-27T03:10:13.477Z,101510.41
2018-06-27T03:11:16.857Z,101506.27
2018-06-27T03:12:20.260Z,101515.35
2018-06-27T03:13:23.667Z,101510.15
2018-06-27T03:14:27.110Z,101513.72
2018-06-27T03:15:30.516Z,101515.35
2018-06-27T03:16:33.900Z,101518.11
2018-06-27T03:17:37.373Z,101519.79
2018-06-27T03:18:50.346Z,101520.05
2018-06-27T03:19:53.751Z,101519.23
2018-06-27T03:20:57.205Z,101520.05
2018-06-27T03:22:00.600Z,101522.55
2018-06-27T03:23:04.022Z,101523.92
2018-06-27T03:24:07.412Z,101521.17
2018-06-27T03:25:11.191Z,101522.55
2018-06-27T03:26:14.638Z,101520.60
2018-06-27T03:27:18.366Z,101526.42
2018-06-27T03:28:22.044Z,101518.41
2018-06-27T03:29:25.833Z,101528.05
2018-06-27T03:30:29.625Z,101532.19
2018-06-27T03:31:33.506Z,101532.19
2018-06-27T03:32:37.128Z,101528.61
2018-06-27T03:33:40.536Z,101535.50
2018-06-27T03:34:43.967Z,101532.75
2018-06-27T03:35:47.398Z,101534.13
2018-06-27T03:36:50.922Z,101530.55
2018-06-27T03:37:54.322Z,101535.80
2018-06-27T03:38:57.766Z,101536.06
2018-06-27T03:40:01.163Z,101540.19
2018-06-27T03:41:04.588Z,101538.81
2018-06-27T03:42:07.991Z,101537.44
2018-06-27T03:43:11.384Z,101530.30
2018-06-27T03:44:14.804Z,101537.44
2018-06-27T03:45:18.196Z,101535.80
2018-06-27T03:46:21.608Z,101531.67
2018-06-27T03:47:25.021Z,101530.86
2018-06-27T03:48:28.455Z,101538.56
2018-06-27T03:49:31.898Z,101537.19
2018-06-27T03:50:35.303Z,101534.43
2018-06-27T03:51:38.711Z,101532.49
2018-06-27T03:52:46.604Z,101541.06
2018-06-27T03:53:55.183Z,101541.31
2018-06-27T03:54:58.590Z,101545.45
2018-06-27T03:56:01.978Z,101544.07
2018-06-27T03:57:05.443Z,101545.20
2018-06-27T03:58:08.828Z,101546.57
2018-06-27T03:59:12.236Z,101549.58
2018-06-27T04:00:15.643Z,101546.57
2018-06-27T04:01:19.030Z,101543.56
2018-06-27T04:02:22.424Z,101548.51
2018-06-27T04:03:25.849Z,101550.70
2018-06-27T04:04:29.245Z,101550.70
2018-06-27T04:05:32.701Z,101547.13
2018-06-27T04:06:36.112Z,101551.83
2018-06-27T04:07:39.500Z,101551.01
2018-06-27T04:08:42.904Z,101553.77
2018-06-27T04:09:46.315Z,101554.02
2018-06-27T04:10:49.757Z,101555.39
2018-06-27T04:11:53.136Z,101559.27
2018-06-27T04:12:56.608Z,101564.22
2018-06-27T04:13:59.955Z,101555.14
2018-06-27T04:15:03.384Z,101565.03
2018-06-27T04:16:06.855Z,101562.03
2018-06-27T04:17:10.255Z,101561.21
2018-06-27T04:18:13.644Z,101563.41
2018-06-27T04:19:17.049Z,101559.83
2018-06-27T04:20:20.434Z,101561.47
2018-06-27T04:21:23.875Z,101561.21
2018-06-27T04:22:31.629Z,101562.59
2018-06-27T04:23:35.045Z,101557.64
2018-06-27T04:24:38.461Z,101559.58
2018-06-27T04:25:41.848Z,101559.58
2018-06-27T04:26:45.270Z,101567.28
2018-06-27T04:27:48.675Z,101566.47
2018-06-27T04:28:52.066Z,101568.66
2018-06-27T04:29:55.578Z,101566.47
2018-06-27T04:30:58.973Z,101575.55
2018-06-27T04:32:02.409Z,101569.47
2018-06-27T04:33:05.836Z,101569.22
2018-06-27T04:34:09.207Z,101569.22
2018-06-27T04:35:12.600Z,101569.22
2018-06-27T04:36:16.038Z,101568.41
2018-06-27T04:37:19.452Z,101566.21
2018-06-27T04:38:22.874Z,101568.97
2018-06-27T04:39:26.357Z,101568.41
2018-06-27T04:40:29.762Z,101564.83
2018-06-27T04:41:33.205Z,101566.47
2018-06-27T04:42:36.623Z,101570.59
2018-06-27T04:43:40.015Z,101569.78
2018-06-27T04:44:43.393Z,101570.03
2018-06-27T04:45:46.769Z,101567.59
2018-06-27T04:46:50.188Z,101568.97
2018-06-27T04:47:53.604Z,101565.95
2018-06-27T04:48:57.001Z,101570.91
2018-06-27T04:50:00.427Z,101567.59
2018-06-27T04:51:03.844Z,101567.59
2018-06-27T04:52:07.576Z,101565.95
2018-06-27T04:53:10.980Z,101561.27
2018-06-27T04:54:14.354Z,101564.30
2018-06-27T04:55:17.783Z,101565.14
2018-06-27T04:56:21.177Z,101563.20
2018-06-27T04:57:24.591Z,101562.91
2018-06-27T04:58:28.021Z,101563.77
2018-06-27T04:59:31.420Z,101562.39
2018-06-27T05:00:34.837Z,101564.30
2018-06-27T05:01:38.271Z,101559.34
2018-06-27T05:02:41.610Z,101557.41
2018-06-27T05:03:45.030Z,101556.03
2018-06-27T05:04:48.435Z,101566.23
2018-06-27T05:05:51.835Z,101562.66
2018-06-27T05:06:55.387Z,101557.41
2018-06-27T05:07:58.809Z,101562.66
2018-06-27T05:09:02.295Z,101565.67
2018-06-27T05:10:05.718Z,101561.54
2018-06-27T05:11:09.136Z,101564.04
2018-06-27T05:12:12.540Z,101558.53
2018-06-27T05:13:15.943Z,101562.66
2018-06-27T05:14:19.360Z,101566.80
2018-06-27T05:15:22.820Z,101559.66
2018-06-27T05:16:26.215Z,101558.27
2018-06-27T05:17:29.589Z,101553.33
2018-06-27T05:18:33.029Z,101561.03
2018-06-27T05:19:40.534Z,101559.66
2018-06-27T05:20:43.952Z,101562.41
2018-06-27T05:21:47.366Z,101560.77
2018-06-27T05:22:50.718Z,101559.40
2018-06-27T05:23:54.098Z,101564.59
2018-06-27T05:24:57.524Z,101556.90
2018-06-27T05:26:00.918Z,101561.03
2018-06-27T05:27:04.327Z,101559.40
2018-06-27T05:28:07.759Z,101563.53
2018-06-27T05:29:11.263Z,101565.16
2018-06-27T05:30:14.689Z,101560.77
2018-06-27T05:31:18.106Z,101564.91
2018-06-27T05:32:21.552Z,101561.59
2018-06-27T05:33:24.930Z,101564.66
2018-06-27T05:34:28.293Z,101563.53
2018-06-27T05:35:31.698Z,101558.58
2018-06-27T05:36:35.133Z,101567.41
2018-06-27T05:37:38.524Z,101568.22
2018-06-27T05:38:41.913Z,101565.47
2018-06-27T05:39:45.301Z,101567.41
2018-06-27T05:40:48.743Z,101563.83
2018-06-27T05:41:52.132Z,101571.53
2018-06-27T05:42:55.565Z,101563.83
2018-06-27T05:43:59.008Z,101567.41
2018-06-27T05:45:02.572Z,101568.78
2018-06-27T05:46:06.035Z,101563.27
2018-06-27T05:47:09.455Z,101566.03
2018-06-27T05:48:12.898Z,101559.70
2018-06-27T05:49:16.284Z,101565.21
2018-06-27T05:50:19.696Z,101564.66
2018-06-27T05:51:23.123Z,101564.95
2018-06-27T05:52:26.573Z,101567.16
2018-06-27T05:53:29.964Z,101572.66
2018-06-27T05:54:33.372Z,101573.47
2018-06-27T05:55:36.826Z,101568.53
2018-06-27T05:56:40.248Z,101577.34
2018-06-27T05:57:43.684Z,101568.53
2018-06-27T05:58:47.088Z,101573.47
2018-06-27T05:59:50.501Z,101571.28
2018-06-27T06:00:53.923Z,101575.97
2018-06-27T06:01:57.339Z,101572.66
2018-06-27T06:03:00.774Z,101578.16
2018-06-27T06:04:04.305Z,101576.53
2018-06-27T06:05:07.731Z,101572.41
2018-06-27T06:06:11.133Z,101575.97
2018-06-27T06:07:14.548Z,101575.41
2018-06-27T06:08:17.959Z,101574.59
2018-06-27T06:09:21.393Z,101574.03
2018-06-27T06:10:24.803Z,101573.22
2018-06-27T06:11:28.205Z,101571.59
2018-06-27T06:12:31.616Z,101569.39
2018-06-27T06:13:35.023Z,101575.72
2018-06-27T06:14:38.439Z,101572.41
2018-06-27T06:15:41.877Z,101574.34
2018-06-27T06:16:45.291Z,101574.34
2018-06-27T06:17:48.719Z,101572.97
2018-06-27T06:18:52.105Z,101573.78
2018-06-27T06:19:55.511Z,101576.53
2018-06-27T06:20:58.917Z,101577.91
2018-06-27T06:22:02.323Z,101570.77
2018-06-27T06:23:05.791Z,101573.52
2018-06-27T06:24:09.414Z,101571.59
2018-06-27T06:25:12.831Z,101572.97
2018-06-27T06:26:16.243Z,101568.83
2018-06-27T06:27:19.652Z,101570.77
2018-06-27T06:28:23.075Z,101565.27
2018-06-27T06:29:26.484Z,101569.65
2018-06-27T06:30:29.890Z,101568.58
2018-06-27T06:31:33.374Z,101565.27
2018-06-27T06:32:36.742Z,101566.08
2018-06-27T06:33:40.194Z,101562.51
2018-06-27T06:34:43.608Z,101566.64
2018-06-27T06:35:47.012Z,101565.83
2018-06-27T06:36:50.426Z,101557.00
2018-06-27T06:37:53.839Z,101563.07
2018-06-27T06:38:57.250Z,101562.51
2018-06-27T06:40:00.662Z,101564.45
2018-06-27T06:41:04.139Z,101562.25
2018-06-27T06:42:07.536Z,101567.20
2018-06-27T06:43:10.966Z,101566.64
2018-06-27T06:44:14.406Z,101566.39
2018-06-27T06:45:17.790Z,101569.14
2018-06-27T06:46:21.180Z,101569.14
2018-06-27T06:47:24.586Z,101570.77
2018-06-27T06:48:28.016Z,101563.63
2018-06-27T06:49:31.483Z,101566.39
2018-06-27T06:50:34.872Z,101567.76
2018-06-27T06:51:38.258Z,101568.02
2018-06-27T06:52:41.645Z,101567.50
2018-06-27T06:53:45.026Z,101565.01
2018-06-27T06:54:48.471Z,101574.64
2018-06-27T06:55:51.856Z,101573.52
2018-06-27T06:56:55.264Z,101569.95
2018-06-27T06:57:58.664Z,101566.64
2018-06-27T06:59:02.088Z,101565.01
2018-06-27T07:00:06.103Z,101566.39
2018-06-27T07:01:09.498Z,101567.20
2018-06-27T07:02:12.979Z,101563.63
2018-06-27T07:03:16.354Z,101563.07
2018-06-27T07:04:19.874Z,101565.56
2018-06-27T07:05:23.291Z,101567.76
2018-06-27T07:06:26.658Z,101566.39
2018-06-27T07:07:30.051Z,101569.70
2018-06-27T07:08:33.441Z,101569.14
2018-06-27T07:09:36.822Z,101572.45
2018-06-27T07:10:40.220Z,101568.32
2018-06-27T07:11:43.765Z,101568.63
2018-06-27T07:12:47.139Z,101571.08
2018-06-27T07:13:50.532Z,101571.64
2018-06-27T07:14:53.971Z,101574.39
2018-06-27T07:15:57.388Z,101574.64
2018-06-27T07:17:00.846Z,101576.59
2018-06-27T07:18:04.323Z,101573.83
2018-06-27T07:19:07.928Z,101574.39
2018-06-27T07:20:11.352Z,101578.52
2018-06-27T07:21:14.882Z,101571.64
2018-06-27T07:22:18.302Z,101573.02
2018-06-27T07:23:21.717Z,101577.96
2018-06-27T07:24:25.117Z,101571.89
2018-06-27T07:25:28.572Z,101575.77
2018-06-27T07:26:31.974Z,101578.52
2018-06-27T07:27:35.355Z,101579.34
2018-06-27T07:28:38.873Z,101579.90
2018-06-27T07:29:42.229Z,101576.02
2018-06-27T07:30:45.646Z,101575.77
2018-06-27T07:31:49.046Z,101573.02
2018-06-27T07:32:52.651Z,101575.77
2018-06-27T07:33:56.591Z,101580.16
2018-06-27T07:34:59.963Z,101575.20
2018-06-27T07:36:03.429Z,101580.71
2018-06-27T07:37:06.842Z,101575.77
2018-06-27T07:38:10.266Z,101578.52
2018-06-27T07:39:13.656Z,101575.77
2018-06-27T07:40:17.054Z,101577.96
2018-06-27T07:41:20.460Z,101578.78
2018-06-27T07:42:23.878Z,101577.40
2018-06-27T07:43:27.260Z,101578.52
2018-06-27T07:44:30.707Z,101583.47
2018-06-27T07:45:34.126Z,101577.14
2018-06-27T07:46:37.550Z,101584.54
2018-06-27T07:47:41.117Z,101582.91
2018-06-27T07:48:44.703Z,101579.34
2018-06-27T07:49:48.166Z,101581.53
2018-06-27T07:50:51.548Z,101583.47
2018-06-27T07:51:54.940Z,101577.14
2018-06-27T07:52:58.375Z,101581.53
2018-06-27T07:54:01.853Z,101576.02
2018-06-27T07:55:05.338Z,101578.78
2018-06-27T07:56:08.830Z,101578.52
2018-06-27T07:57:14.794Z,101572.70
2018-06-27T07:58:18.224Z,101575.20
2018-06-27T07:59:21.603Z,101568.88
2018-06-27T08:00:24.987Z,101571.89
2018-06-27T08:01:28.417Z,101571.89
2018-06-27T08:02:31.820Z,101571.08
2018-06-27T08:03:35.233Z,101571.89
2018-06-27T08:04:38.628Z,101574.64
2018-06-27T08:05:42.041Z,101566.39
2018-06-27T08:06:46.633Z,101568.02
2018-06-27T08:07:50.051Z,101566.95
2018-06-27T08:08:53.523Z,101568.83
2018-06-27T08:09:56.932Z,101572.14
2018-06-27T08:11:00.329Z,101570.77
2018-06-27T08:12:03.761Z,101576.84
2018-06-27T08:13:07.142Z,101577.66
2018-06-27T08:14:10.597Z,101573.27
2018-06-27T08:15:13.996Z,101574.90
2018-06-27T08:16:17.397Z,101574.90
2018-06-27T08:17:20.802Z,101573.52
2018-06-27T08:18:24.221Z,101572.70
2018-06-27T08:19:27.668Z,101572.14
2018-06-27T08:20:31.073Z,101571.02
2018-06-27T08:21:34.509Z,101573.78
2018-06-27T08:22:37.893Z,101571.02
2018-06-27T08:23:41.284Z,101569.39
2018-06-27T08:24:44.751Z,101567.45
2018-06-27T08:25:51.031Z,101569.39
2018-06-27T08:26:54.485Z,101566.89
2018-06-27T08:27:57.960Z,101568.83
2018-06-27T08:29:01.400Z,101567.71
2018-06-27T08:30:05.929Z,101563.33
2018-06-27T08:31:09.365Z,101569.65
2018-06-27T08:32:12.737Z,101569.09
2018-06-27T08:33:16.111Z,101564.95
2018-06-27T08:34:19.505Z,101558.63
2018-06-27T08:35:22.920Z,101558.63
2018-06-27T08:36:26.317Z,101556.44
2018-06-27T08:37:29.708Z,101556.69
2018-06-27T08:38:33.105Z,101563.02
2018-06-27T08:39:36.490Z,101557.26
2018-06-27T08:40:39.904Z,101560.02
2018-06-27T08:41:43.314Z,101560.27
2018-06-27T08:42:46.706Z,101553.94
2018-06-27T08:43:50.355Z,101555.31
2018-06-27T08:44:53.784Z,101554.50
2018-06-27T08:45:57.250Z,101554.76
2018-06-27T08:47:00.683Z,101554.76
2018-06-27T08:48:04.141Z,101549.25
2018-06-27T08:49:07.537Z,101547.06
2018-06-27T08:50:10.908Z,101546.50
2018-06-27T08:51:14.367Z,101551.44
2018-06-27T08:52:17.761Z,101549.81
2018-06-27T08:53:21.146Z,101543.73
2018-06-27T08:54:24.529Z,101545.12
2018-06-27T08:55:27.932Z,101545.37
2018-06-27T08:56:31.322Z,101543.18
2018-06-27T08:57:34.734Z,101539.05
2018-06-27T08:58:38.103Z,101540.42
2018-06-27T08:59:41.517Z,101543.18
2018-06-27T09:00:44.941Z,101539.30
2018-06-27T09:01:48.385Z,101540.42
2018-06-27T09:02:51.784Z,101540.68
2018-06-27T09:03:55.183Z,101542.06
2018-06-27T09:04:58.559Z,101537.37
2018-06-27T09:06:01.972Z,101532.98
2018-06-27T09:07:06.016Z,101534.36
2018-06-27T09:08:09.447Z,101532.98
2018-06-27T09:09:13.396Z,101528.85
2018-06-27T09:10:16.803Z,101533.80
2018-06-27T09:11:20.355Z,101528.85
2018-06-27T09:12:23.948Z,101526.35
2018-06-27T09:13:27.356Z,101531.04
2018-06-27T09:14:30.771Z,101523.84
2018-06-27T09:15:34.188Z,101531.30
2018-06-27T09:16:37.640Z,101522.78
2018-06-27T09:17:41.143Z,101522.47
2018-06-27T09:18:44.643Z,101525.79
2018-06-27T09:19:48.039Z,101523.59
2018-06-27T09:20:51.446Z,101521.09
2018-06-27T09:21:54.926Z,101525.23
2018-06-27T09:22:58.383Z,101520.28
2018-06-27T09:24:01.825Z,101523.84
2018-06-27T09:25:05.598Z,101518.34
2018-06-27T09:26:09.201Z,101518.34
2018-06-27T09:27:12.716Z,101516.41
2018-06-27T09:28:16.098Z,101518.34
2018-06-27T09:29:19.552Z,101519.97
2018-06-27T09:30:22.993Z,101519.97
2018-06-27T09:31:26.405Z,101514.21
2018-06-27T09:32:29.849Z,101518.59
2018-06-27T09:33:33.250Z,101518.84
2018-06-27T09:34:36.729Z,101515.84
2018-06-27T09:35:40.163Z,101511.15
2018-06-27T09:36:43.588Z,101514.72
2018-06-27T09:37:46.990Z,101516.66
2018-06-27T09:38:50.686Z,101512.53
2018-06-27T09:39:54.208Z,101511.44
2018-06-27T09:40:58.047Z,101510.06
2018-06-27T09:42:01.660Z,101510.88
2018-06-27T09:43:05.302Z,101511.44
2018-06-27T09:44:08.837Z,101511.13
2018-06-27T09:45:12.497Z,101505.92
2018-06-27T09:46:15.966Z,101508.69
2018-06-27T09:47:19.420Z,101508.69
2018-06-27T09:48:22.888Z,101513.88
2018-06-27T09:49:26.436Z,101509.50
2018-06-27T09:50:30.023Z,101506.44
2018-06-27T09:51:33.420Z,101505.62
2018-06-27T09:52:36.807Z,101501.48
2018-06-27T09:53:40.248Z,101501.73
2018-06-27T09:54:44.071Z,101500.11
2018-06-27T09:55:47.661Z,101496.23
2018-06-27T09:56:51.322Z,101497.05
2018-06-27T09:57:54.818Z,101494.04
2018-06-27T09:58:58.497Z,101494.30
2018-06-27T10:00:02.112Z,101494.86
2018-06-27T10:01:05.685Z,101494.30
2018-06-27T10:02:09.840Z,101493.48
2018-06-27T10:03:13.315Z,101497.30
2018-06-27T10:04:16.824Z,101494.30
2018-06-27T10:05:20.656Z,101490.73
2018-06-27T10:06:24.186Z,101491.23
2018-06-27T10:07:27.688Z,101486.28
2018-06-27T10:08:31.276Z,101490.41
2018-06-27T10:09:37.847Z,101490.41
2018-06-27T10:10:41.356Z,101487.66
2018-06-27T10:11:44.933Z,101485.72
2018-06-27T10:12:48.427Z,101480.22
2018-06-27T10:13:52.227Z,101481.03
2018-06-27T10:14:55.629Z,101473.33
2018-06-27T10:15:59.091Z,101471.95
2018-06-27T10:17:02.553Z,101470.58
2018-06-27T10:18:06.060Z,101469.45
2018-06-27T10:19:09.745Z,101462.56
2018-06-27T10:20:13.200Z,101468.08
2018-06-27T10:21:16.656Z,101470.27
2018-06-27T10:22:20.061Z,101462.00
2018-06-27T10:23:23.491Z,101460.63
2018-06-27T10:24:26.965Z,101458.69
2018-06-27T10:25:30.385Z,101458.69
2018-06-27T10:26:33.811Z,101457.56
2018-06-27T10:27:37.208Z,101461.44
2018-06-27T10:28:40.582Z,101456.75
2018-06-27T10:29:43.985Z,101453.43
2018-06-27T10:30:47.613Z,101453.43
2018-06-27T10:31:51.023Z,101454.80
2018-06-27T10:32:54.597Z,101449.55
2018-06-27T10:33:57.986Z,101450.11
2018-06-27T10:35:01.447Z,101450.92
2018-06-27T10:36:04.999Z,101455.62
2018-06-27T10:37:08.396Z,101445.42
2018-06-27T10:38:11.979Z,101451.49
2018-06-27T10:39:15.381Z,101451.74
2018-06-27T10:40:18.793Z,101447.05
2018-06-27T10:41:22.602Z,101444.04
2018-06-27T10:42:26.029Z,101446.23
2018-06-27T10:43:29.406Z,101442.66
2018-06-27T10:44:32.796Z,101444.30
2018-06-27T10:45:36.225Z,101445.67
2018-06-27T10:46:39.639Z,101441.80
2018-06-27T10:47:43.038Z,101438.78
2018-06-27T10:48:46.589Z,101435.16
2018-06-27T10:49:49.988Z,101432.16
2018-06-27T10:50:53.449Z,101432.71
2018-06-27T10:51:57.262Z,101431.03
2018-06-27T10:53:00.684Z,101426.08
2018-06-27T10:54:04.097Z,101421.95
2018-06-27T10:55:12.977Z,101426.08
2018-06-27T10:56:16.354Z,101423.58
2018-06-27T10:57:20.295Z,101424.14
2018-06-27T10:58:23.698Z,101423.83
2018-06-27T10:59:27.106Z,101429.91
2018-06-27T11:00:30.496Z,101429.09
2018-06-27T11:01:34.026Z,101428.52
2018-06-27T11:02:37.421Z,101429.91
2018-06-27T11:03:40.861Z,101425.77
2018-06-27T11:04:44.269Z,101419.70
2018-06-27T11:05:47.656Z,101419.70
2018-06-27T11:06:51.038Z,101419.70
2018-06-27T11:07:54.457Z,101416.37
2018-06-27T11:08:57.879Z,101417.75
2018-06-27T11:10:01.280Z,101410.88
2018-06-27T11:11:04.724Z,101415.81
2018-06-27T11:12:08.133Z,101412.25
2018-06-27T11:13:11.545Z,101419.42
2018-06-27T11:14:15.007Z,101412.53
2018-06-27T11:15:18.362Z,101413.91
2018-06-27T11:16:21.802Z,101411.16
2018-06-27T11:17:25.263Z,101402.89
2018-06-27T11:18:28.630Z,101399.58
2018-06-27T11:19:32.044Z,101405.89
2018-06-27T11:20:35.432Z,101406.71
2018-06-27T11:21:38.802Z,101402.83
2018-06-27T11:22:42.392Z,101409.16
2018-06-27T11:23:45.811Z,101395.38
2018-06-27T11:24:49.195Z,101397.32
2018-06-27T11:25:52.620Z,101392.38
2018-06-27T11:26:56.104Z,101391.56
2018-06-27T11:27:59.461Z,101388.24
2018-06-27T11:29:02.893Z,101391.00
2018-06-27T11:30:06.377Z,101391.25
2018-06-27T11:31:09.747Z,101401.45
2018-06-27T11:32:13.145Z,101401.45
2018-06-27T11:33:16.529Z,101405.27
2018-06-27T11:34:20.706Z,101398.95
2018-06-27T11:35:24.116Z,101398.38
2018-06-27T11:36:27.512Z,101396.45
2018-06-27T11:37:30.930Z,101390.13
2018-06-27T11:38:34.336Z,101388.18
2018-06-27T11:39:37.787Z,101385.42
2018-06-27T11:40:41.159Z,101377.72
2018-06-27T11:41:44.637Z,101380.16
2018-06-27T11:42:48.574Z,101380.98
2018-06-27T11:43:51.974Z,101376.59
2018-06-27T11:44:55.399Z,101377.41
2018-06-27T11:45:58.793Z,101376.84
2018-06-27T11:47:02.205Z,101378.23
2018-06-27T11:48:05.625Z,101380.16
2018-06-27T11:49:09.241Z,101382.36
2018-06-27T11:50:12.651Z,101374.66
2018-06-27T11:51:16.052Z,101371.34
2018-06-27T11:52:19.473Z,101377.09
2018-06-27T11:53:22.893Z,101377.09
2018-06-27T11:54:26.332Z,101374.34
2018-06-27T11:55:29.797Z,101370.21
2018-06-27T11:56:34.116Z,101377.91
2018-06-27T11:57:37.509Z,101382.05
2018-06-27T11:58:40.971Z,101381.73
2018-06-27T11:59:44.358Z,101379.80
2018-06-27T12:00:47.789Z,101378.16
2018-06-27T12:01:51.203Z,101378.98
2018-06-27T12:02:54.619Z,101372.09
2018-06-27T12:03:58.574Z,101373.72
2018-06-27T12:05:01.991Z,101377.85